createdAt,value
2023-05-10T00:01:46.287Z,17.65
2023-05-10T00:04:14.922Z,17.61
2023-05-10T00:06:43.618Z,17.58
2023-05-10T00:09:12.041Z,17.55
2023-05-10T00:11:40.116Z,17.54
2023-05-10T00:14:08.295Z,17.51
2023-05-10T00:16:37.980Z,17.49
2023-05-10T00:19:06.218Z,17.46
2023-05-10T00:21:34.722Z,17.48
2023-05-10T00:24:03.133Z,17.47
2023-05-10T00:26:31.207Z,17.49
2023-05-10T00:28:59.952Z,17.45
2023-05-10T00:31:28.018Z,17.44
2023-05-10T00:33:58.188Z,17.43
2023-05-10T00:36:26.399Z,17.42
2023-05-10T00:38:54.668Z,17.38
2023-05-10T00:41:23.381Z,17.35
2023-05-10T00:43:51.954Z,17.35
2023-05-10T00:46:20.803Z,17.34
2023-05-10T00:48:49.847Z,17.31
2023-05-10T00:51:20.065Z,17.28
2023-05-10T00:53:48.977Z,17.26
2023-05-10T00:56:17.668Z,17.25
2023-05-10T00:58:46.067Z,17.24
2023-05-10T01:01:15.538Z,17.23
2023-05-10T01:03:44.628Z,17.21
2023-05-10T01:06:12.910Z,17.17
2023-05-10T01:08:43.166Z,17.16
2023-05-10T01:11:12.526Z,17.16
2023-05-10T01:13:44.510Z,17.17
2023-05-10T01:16:12.846Z,17.18
2023-05-10T01:18:43.560Z,17.21
2023-05-10T01:21:23.101Z,17.18
2023-05-10T01:24:40.318Z,17.11
2023-05-10T01:27:48.138Z,17.08
2023-05-10T01:30:47.201Z,17.11
2023-05-10T01:33:24.199Z,17.12
2023-05-10T01:36:00.002Z,17.12
2023-05-10T01:38:41.477Z,17.12
2023-05-10T01:41:19.628Z,17.12
2023-05-10T01:43:59.987Z,17.11
2023-05-10T01:46:36.625Z,17.11
2023-05-10T01:49:11.881Z,17.10
2023-05-10T01:51:47.236Z,17.09
2023-05-10T01:54:21.508Z,17.10
2023-05-10T01:57:10.086Z,17.11
2023-05-10T01:59:42.543Z,17.08
2023-05-10T02:02:14.631Z,17.05
2023-05-10T02:04:45.840Z,17.05
2023-05-10T02:07:16.360Z,17.03
2023-05-10T02:09:48.981Z,17.02
2023-05-10T02:12:20.221Z,17.01
2023-05-10T02:14:49.906Z,16.99
2023-05-10T02:17:19.409Z,16.99
2023-05-10T02:19:50.344Z,16.99
2023-05-10T02:22:20.542Z,16.98
2023-05-10T02:24:51.677Z,16.96
2023-05-10T02:27:22.895Z,16.98
2023-05-10T02:29:53.478Z,16.99
2023-05-10T02:32:23.711Z,17.00
2023-05-10T02:34:55.424Z,16.96
2023-05-10T02:37:24.912Z,16.97
2023-05-10T02:39:56.580Z,16.97
2023-05-10T02:42:28.621Z,16.96
2023-05-10T02:45:01.958Z,16.95
2023-05-10T02:47:31.432Z,16.94
2023-05-10T02:50:01.847Z,16.92
2023-05-10T02:52:41.246Z,16.94
2023-05-10T02:55:13.818Z,16.93
2023-05-10T02:57:51.526Z,16.96
2023-05-10T03:00:20.289Z,16.95
2023-05-10T03:02:48.458Z,16.95
2023-05-10T03:05:18.404Z,16.97
2023-05-10T03:07:47.719Z,17.00
2023-05-10T03:10:16.197Z,17.00
2023-05-10T03:13:04.780Z,17.03
2023-05-10T03:15:44.758Z,17.08
2023-05-10T03:18:18.202Z,17.07
2023-05-10T03:20:51.121Z,17.07
2023-05-10T03:23:29.035Z,17.08
2023-05-10T03:25:57.814Z,17.06
2023-05-10T03:28:28.928Z,17.04
2023-05-10T03:31:01.836Z,17.01
2023-05-10T03:33:31.778Z,17.02
2023-05-10T03:36:01.424Z,16.99
2023-05-10T03:38:30.559Z,16.95
2023-05-10T03:40:58.686Z,16.94
2023-05-10T03:43:26.681Z,16.96
2023-05-10T03:45:55.035Z,16.97
2023-05-10T03:48:23.022Z,16.99
2023-05-10T03:50:51.280Z,17.02
2023-05-10T03:53:21.143Z,17.02
2023-05-10T03:55:50.308Z,17.02
2023-05-10T03:58:19.123Z,17.03
2023-05-10T04:00:47.403Z,17.02
2023-05-10T04:03:16.572Z,16.99
2023-05-10T04:05:44.774Z,16.99
2023-05-10T04:08:16.005Z,16.95
2023-05-10T04:10:45.465Z,16.94
2023-05-10T04:13:13.397Z,16.96
2023-05-10T04:15:41.281Z,16.99
2023-05-10T04:18:09.175Z,17.10
2023-05-10T04:20:37.105Z,17.26
2023-05-10T04:23:05.054Z,17.39
2023-05-10T04:25:36.040Z,17.45
2023-05-10T04:28:05.652Z,17.47
2023-05-10T04:30:33.612Z,17.54
2023-05-10T04:33:02.783Z,17.79
2023-05-10T04:35:31.468Z,17.83
2023-05-10T04:37:59.416Z,17.76
2023-05-10T04:40:28.157Z,17.62
2023-05-10T04:42:56.664Z,17.46
2023-05-10T04:45:26.220Z,17.36
2023-05-10T04:47:54.516Z,17.36
2023-05-10T04:50:22.668Z,17.35
2023-05-10T04:52:51.119Z,17.34
2023-05-10T04:55:21.473Z,17.30
2023-05-10T04:57:53.260Z,17.22
2023-05-10T05:00:22.685Z,17.18
2023-05-10T05:02:52.695Z,17.06
2023-05-10T05:05:20.797Z,17.02
2023-05-10T05:07:49.540Z,17.04
2023-05-10T05:10:18.019Z,17.10
2023-05-10T05:12:46.433Z,17.26
2023-05-10T05:15:14.528Z,17.24
2023-05-10T05:17:42.770Z,17.11
2023-05-10T05:20:14.123Z,17.07
2023-05-10T05:22:42.371Z,17.07
2023-05-10T05:25:12.512Z,17.10
2023-05-10T05:27:40.565Z,17.10
2023-05-10T05:30:09.803Z,17.11
2023-05-10T05:32:38.293Z,17.31
2023-05-10T05:35:07.291Z,17.43
2023-05-10T05:37:38.279Z,17.35
2023-05-10T05:40:07.706Z,17.23
2023-05-10T05:42:35.736Z,17.25
2023-05-10T05:45:03.705Z,17.27
2023-05-10T05:47:32.888Z,17.26
2023-05-10T05:50:01.091Z,17.11
2023-05-10T05:52:29.541Z,17.00
2023-05-10T05:54:58.892Z,16.91
2023-05-10T05:57:28.397Z,16.87
2023-05-10T05:59:56.569Z,16.80
2023-05-10T06:02:24.966Z,16.79
2023-05-10T06:04:53.467Z,16.78
2023-05-10T06:07:23.363Z,16.79
2023-05-10T06:09:51.427Z,16.77
2023-05-10T06:12:21.055Z,16.81
2023-05-10T06:14:50.186Z,16.94
2023-05-10T06:17:18.529Z,17.06
2023-05-10T06:19:46.708Z,17.28
2023-05-10T06:22:14.984Z,17.40
2023-05-10T06:24:43.038Z,17.46
2023-05-10T06:27:12.261Z,17.64
2023-05-10T06:29:41.726Z,17.84
2023-05-10T06:32:10.330Z,17.96
2023-05-10T06:34:38.545Z,18.13
2023-05-10T06:37:07.403Z,18.30
2023-05-10T06:39:35.484Z,18.46
2023-05-10T06:42:03.827Z,18.60
2023-05-10T06:44:34.265Z,18.71
2023-05-10T06:47:04.080Z,18.88
2023-05-10T06:49:32.025Z,18.97
2023-05-10T06:52:00.161Z,19.09
2023-05-10T06:54:28.107Z,19.31
2023-05-10T06:56:56.419Z,19.66
2023-05-10T06:59:25.767Z,20.01
2023-05-10T07:01:54.957Z,20.23
2023-05-10T07:04:24.541Z,20.30
2023-05-10T07:07:00.285Z,20.47
2023-05-10T07:09:28.276Z,20.55
2023-05-10T07:11:57.580Z,20.47
2023-05-10T07:14:25.778Z,20.46
2023-05-10T07:16:54.137Z,20.37
2023-05-10T07:19:22.612Z,20.27
2023-05-10T07:21:52.423Z,20.13
2023-05-10T07:24:20.495Z,20.19
2023-05-10T07:26:48.531Z,20.20
2023-05-10T07:29:16.577Z,20.29
2023-05-10T07:31:44.751Z,20.29
2023-05-10T07:34:12.944Z,20.22
2023-05-10T07:36:40.957Z,20.16
2023-05-10T07:39:11.496Z,20.15
2023-05-10T07:41:40.957Z,20.22
2023-05-10T07:44:09.191Z,20.33
2023-05-10T07:46:37.378Z,20.36
2023-05-10T07:49:06.488Z,20.31
2023-05-10T07:51:53.965Z,20.22
2023-05-10T07:54:23.742Z,20.26
2023-05-10T07:56:53.053Z,20.32
2023-05-10T07:59:21.453Z,20.41
2023-05-10T08:01:49.402Z,20.53
2023-05-10T08:04:17.349Z,20.58
2023-05-10T08:06:45.698Z,20.63
2023-05-10T08:09:14.298Z,20.52
2023-05-10T08:11:43.679Z,20.43
2023-05-10T08:14:11.779Z,20.32
2023-05-10T08:16:39.837Z,20.29
2023-05-10T08:19:08.036Z,20.19
2023-05-10T08:21:36.832Z,20.25
2023-05-10T08:24:05.249Z,20.38
2023-05-10T08:26:35.595Z,20.46
2023-05-10T08:29:05.068Z,20.43
2023-05-10T08:31:33.332Z,20.48
2023-05-10T08:34:01.521Z,20.57
2023-05-10T08:36:30.954Z,20.59
2023-05-10T08:38:59.071Z,20.87
2023-05-10T08:41:36.570Z,21.46
2023-05-10T08:44:07.149Z,21.86
2023-05-10T08:46:39.782Z,21.85
2023-05-10T08:49:09.733Z,21.78
2023-05-10T08:51:43.815Z,21.72
2023-05-10T08:54:13.757Z,21.49
2023-05-10T08:56:41.841Z,21.22
2023-05-10T08:59:12.530Z,20.98
2023-05-10T09:01:45.355Z,20.82
2023-05-10T09:04:14.033Z,20.64
2023-05-10T09:06:42.139Z,20.70
2023-05-10T09:09:10.265Z,20.85
2023-05-10T09:11:38.965Z,21.12
2023-05-10T09:14:07.591Z,21.34
2023-05-10T09:16:37.246Z,21.49
2023-05-10T09:19:05.729Z,21.49
2023-05-10T09:21:33.984Z,21.46
2023-05-10T09:24:05.487Z,21.42
2023-05-10T09:26:34.346Z,21.34
2023-05-10T09:29:03.664Z,21.20
2023-05-10T09:31:52.151Z,21.14
2023-05-10T09:34:22.193Z,21.22
2023-05-10T09:36:58.658Z,21.36
2023-05-10T09:39:33.983Z,21.57
2023-05-10T09:42:05.751Z,21.82
2023-05-10T09:44:34.504Z,22.18
2023-05-10T09:47:04.688Z,22.40
2023-05-10T09:49:34.362Z,22.52
2023-05-10T09:52:04.521Z,22.50
2023-05-10T09:54:33.187Z,22.43
2023-05-10T09:57:01.637Z,22.67
2023-05-10T09:59:31.541Z,22.96
2023-05-10T10:02:01.890Z,23.10
2023-05-10T10:04:31.705Z,23.25
2023-05-10T10:07:06.197Z,23.45
2023-05-10T10:09:36.177Z,23.70
2023-05-10T10:12:05.825Z,24.04
2023-05-10T10:14:35.161Z,24.42
2023-05-10T10:19:37.651Z,25.03
2023-05-10T10:22:06.857Z,24.90
2023-05-10T10:24:36.490Z,24.52
2023-05-10T10:27:24.058Z,24.35
2023-05-10T10:30:06.895Z,23.91
2023-05-10T10:32:53.738Z,23.47
2023-05-10T10:35:23.761Z,22.92
2023-05-10T10:37:53.258Z,22.50
2023-05-10T10:40:29.015Z,22.26
2023-05-10T10:42:58.621Z,22.13
2023-05-10T10:45:28.493Z,21.99
2023-05-10T10:48:23.927Z,21.80
2023-05-10T10:50:59.777Z,21.80
2023-05-10T10:53:29.552Z,21.65
2023-05-10T10:56:08.966Z,21.58
2023-05-10T10:58:38.767Z,21.57
2023-05-10T11:01:15.050Z,21.36
2023-05-10T11:04:17.259Z,21.28
2023-05-10T11:06:46.608Z,21.20
2023-05-10T11:09:15.524Z,21.14
2023-05-10T11:11:56.129Z,21.16
2023-05-10T11:14:24.620Z,21.11
2023-05-10T11:16:53.973Z,21.15
2023-05-10T11:19:22.084Z,20.94
2023-05-10T11:21:55.122Z,20.73
2023-05-10T11:24:29.139Z,20.45
2023-05-10T11:26:58.171Z,20.24
2023-05-10T11:29:27.812Z,19.95
2023-05-10T11:32:00.432Z,19.67
2023-05-10T11:34:31.268Z,19.43
2023-05-10T11:37:01.214Z,19.20
2023-05-10T11:39:31.137Z,18.91
2023-05-10T11:42:00.184Z,18.68
2023-05-10T11:44:33.182Z,18.44
2023-05-10T11:47:02.323Z,18.40
2023-05-10T11:49:30.625Z,18.24
2023-05-10T11:52:08.284Z,18.11
2023-05-10T11:54:36.982Z,17.97
2023-05-10T11:57:05.287Z,17.80
2023-05-10T11:59:34.325Z,17.77
2023-05-10T12:02:03.110Z,17.73
2023-05-10T12:04:32.155Z,17.69
2023-05-10T12:07:00.417Z,17.61
2023-05-10T12:09:42.476Z,17.58
2023-05-10T12:12:12.681Z,17.58
2023-05-10T12:14:40.698Z,17.59
2023-05-10T12:17:13.300Z,17.54
2023-05-10T12:19:42.110Z,17.50
2023-05-10T12:22:10.431Z,17.51
2023-05-10T12:24:40.505Z,17.47
2023-05-10T12:27:13.473Z,17.46
2023-05-10T12:29:45.383Z,17.52
2023-05-10T12:32:13.692Z,17.50
2023-05-10T12:34:41.784Z,17.45
2023-05-10T12:37:09.685Z,17.36
2023-05-10T12:39:47.182Z,17.43
2023-05-10T12:42:15.131Z,17.53
2023-05-10T12:44:43.302Z,17.56
2023-05-10T12:47:11.706Z,17.58
2023-05-10T12:49:40.178Z,17.60
2023-05-10T12:52:08.177Z,17.55
2023-05-10T12:54:36.526Z,17.50
2023-05-10T12:57:06.425Z,17.56
2023-05-10T12:59:35.919Z,17.58
2023-05-10T13:02:05.441Z,17.59
2023-05-10T13:04:33.955Z,17.58
2023-05-10T13:07:02.044Z,17.56
2023-05-10T13:09:30.534Z,17.53
2023-05-10T13:11:58.780Z,17.43
2023-05-10T13:14:28.855Z,17.39
2023-05-10T13:16:57.965Z,17.42
2023-05-10T13:19:26.352Z,17.44
2023-05-10T13:21:54.505Z,17.40
2023-05-10T13:24:23.982Z,17.33
2023-05-10T13:26:52.440Z,17.30
2023-05-10T13:29:22.013Z,17.27
2023-05-10T13:31:51.962Z,17.18
2023-05-10T13:34:21.457Z,17.13
2023-05-10T13:36:50.606Z,17.05
2023-05-10T13:39:19.386Z,17.04
2023-05-10T13:41:47.569Z,16.98
2023-05-10T13:44:17.322Z,16.96
2023-05-10T13:46:45.711Z,16.92
2023-05-10T13:49:15.221Z,16.89
2023-05-10T13:51:43.686Z,16.81
2023-05-10T13:54:13.559Z,16.74
2023-05-10T13:56:42.100Z,16.72
2023-05-10T13:59:10.225Z,16.75
2023-05-10T14:01:39.286Z,16.75
2023-05-10T14:04:07.334Z,16.69
2023-05-10T14:06:37.329Z,16.69
2023-05-10T14:09:08.494Z,16.64
2023-05-10T14:11:40.152Z,16.62
2023-05-10T14:14:08.648Z,16.60
2023-05-10T14:16:36.962Z,16.59
2023-05-10T14:19:08.123Z,16.62
2023-05-10T14:21:37.614Z,16.71
2023-05-10T14:24:07.955Z,16.77
2023-05-10T14:26:36.158Z,16.94
2023-05-10T14:29:04.245Z,17.09
2023-05-10T14:31:32.315Z,17.30
2023-05-10T14:34:00.635Z,17.45
2023-05-10T14:36:30.732Z,17.82
2023-05-10T14:39:00.584Z,18.56
2023-05-10T14:41:28.585Z,18.84
2023-05-10T14:43:56.660Z,19.11
2023-05-10T14:46:25.050Z,19.17
2023-05-10T14:48:53.617Z,19.01
2023-05-10T14:51:22.765Z,18.90
2023-05-10T14:53:51.481Z,18.67
2023-05-10T14:56:27.134Z,18.54
2023-05-10T14:58:55.148Z,18.48
2023-05-10T15:01:23.688Z,18.43
2023-05-10T15:03:52.809Z,18.36
2023-05-10T15:06:27.016Z,18.25
2023-05-10T15:08:55.147Z,18.24
2023-05-10T15:11:28.266Z,18.28
2023-05-10T15:13:56.553Z,18.24
2023-05-10T15:16:25.325Z,18.16
2023-05-10T15:18:53.483Z,18.20
2023-05-10T15:21:22.507Z,18.22
2023-05-10T15:23:50.535Z,18.23
2023-05-10T15:26:18.706Z,18.20
2023-05-10T15:28:48.200Z,18.21
2023-05-10T15:31:16.982Z,18.21
2023-05-10T15:33:44.981Z,18.24
2023-05-10T15:36:13.634Z,18.16
2023-05-10T15:38:42.112Z,18.28
2023-05-10T15:41:10.117Z,18.45
2023-05-10T15:43:38.025Z,18.45
2023-05-10T15:46:08.136Z,18.42
2023-05-10T15:48:36.523Z,18.58
2023-05-10T15:51:04.890Z,18.48
2023-05-10T15:53:32.929Z,18.28
2023-05-10T15:56:00.854Z,18.10
2023-05-10T15:58:28.919Z,17.80
2023-05-10T16:00:57.816Z,17.55
2023-05-10T16:03:27.515Z,17.34
2023-05-10T16:05:55.741Z,17.24
2023-05-10T16:08:23.818Z,17.10
2023-05-10T16:10:53.732Z,17.00
2023-05-10T16:13:21.902Z,16.89
2023-05-10T16:15:49.974Z,16.81
2023-05-10T16:18:18.318Z,16.70
2023-05-10T16:20:48.571Z,16.65
2023-05-10T16:23:16.814Z,16.61
2023-05-10T16:25:45.482Z,16.51
2023-05-10T16:28:13.893Z,16.41
2023-05-10T16:30:42.340Z,16.36
2023-05-10T16:33:10.636Z,16.30
2023-05-10T16:35:39.107Z,16.28
2023-05-10T16:38:08.829Z,16.24
2023-05-10T16:40:37.091Z,16.23
2023-05-10T16:43:05.190Z,16.35
2023-05-10T16:45:33.365Z,16.43
2023-05-10T16:48:01.696Z,16.37
2023-05-10T16:50:29.718Z,16.33
2023-05-10T16:52:57.907Z,16.20
2023-05-10T16:55:27.593Z,16.12
2023-05-10T16:57:59.678Z,16.06
2023-05-10T17:00:27.894Z,15.98
2023-05-10T17:02:56.394Z,15.96
2023-05-10T17:05:24.851Z,15.91
2023-05-10T17:07:53.144Z,15.83
2023-05-10T17:10:23.431Z,15.72
2023-05-10T17:12:53.873Z,15.64
2023-05-10T17:15:22.220Z,15.60
2023-05-10T17:17:50.243Z,15.55
2023-05-10T17:20:18.573Z,15.48
2023-05-10T17:22:46.652Z,15.41
2023-05-10T17:25:15.321Z,15.33
2023-05-10T17:27:43.563Z,15.31
2023-05-10T17:30:15.593Z,15.28
2023-05-10T17:32:44.068Z,15.25
2023-05-10T17:35:12.484Z,15.22
2023-05-10T17:37:41.522Z,15.16
2023-05-10T17:40:12.271Z,15.15
2023-05-10T17:42:40.237Z,15.11
2023-05-10T17:45:09.560Z,15.11
2023-05-10T17:47:40.552Z,15.11
2023-05-10T17:50:10.436Z,15.06
2023-05-10T17:52:38.487Z,15.02
2023-05-10T17:55:09.504Z,15.02
2023-05-10T17:57:38.769Z,15.02
2023-05-10T18:00:09.481Z,15.06
2023-05-10T18:02:39.005Z,15.03
2023-05-10T18:05:08.627Z,15.00
2023-05-10T18:07:37.279Z,15.01
2023-05-10T18:10:08.385Z,15.00
2023-05-10T18:12:37.572Z,14.99
2023-05-10T18:15:12.061Z,14.95
2023-05-10T18:17:41.577Z,14.90
2023-05-10T18:20:13.173Z,14.85
2023-05-10T18:22:41.335Z,14.78
2023-05-10T18:25:10.462Z,14.76
2023-05-10T18:27:38.641Z,14.72
2023-05-10T18:30:10.070Z,14.71
2023-05-10T18:32:38.663Z,14.72
2023-05-10T18:35:09.880Z,14.73
2023-05-10T18:37:39.063Z,14.70
2023-05-10T18:40:10.759Z,14.67
2023-05-10T18:42:39.861Z,14.64
2023-05-10T18:45:09.628Z,14.63
2023-05-10T18:47:37.869Z,14.61
2023-05-10T18:50:06.820Z,14.61
2023-05-10T18:52:37.183Z,14.57
2023-05-10T18:55:06.065Z,14.55
2023-05-10T18:57:39.632Z,14.54
2023-05-10T19:00:10.587Z,14.53
2023-05-10T19:02:38.956Z,14.51
2023-05-10T19:05:08.730Z,14.47
2023-05-10T19:07:38.663Z,14.46
2023-05-10T19:10:08.074Z,14.44
2023-05-10T19:12:37.531Z,14.39
2023-05-10T19:15:06.437Z,14.35
2023-05-10T19:17:36.407Z,14.33
2023-05-10T19:20:05.545Z,14.34
2023-05-10T19:22:47.221Z,14.36
2023-05-10T19:25:29.286Z,14.35
2023-05-10T19:27:58.629Z,14.29
2023-05-10T19:30:30.503Z,14.26
2023-05-10T19:32:59.111Z,14.27
2023-05-10T19:35:27.384Z,14.28
2023-05-10T19:37:55.884Z,14.29
2023-05-10T19:40:25.595Z,14.27
2023-05-10T19:42:57.126Z,14.28
2023-05-10T19:45:25.435Z,14.27
2023-05-10T19:47:54.150Z,14.28
2023-05-10T19:50:22.467Z,14.27
2023-05-10T19:52:50.621Z,14.29
2023-05-10T19:55:29.508Z,14.30
2023-05-10T19:58:00.735Z,14.25
2023-05-10T20:00:33.014Z,14.22
2023-05-10T20:03:03.119Z,14.19
2023-05-10T20:05:31.871Z,14.18
2023-05-10T20:08:00.115Z,14.13
2023-05-10T20:10:30.232Z,14.09
2023-05-10T20:13:00.565Z,14.05
2023-05-10T20:15:30.420Z,14.09
2023-05-10T20:17:58.477Z,14.05
2023-05-10T20:20:27.238Z,14.03
2023-05-10T20:22:55.164Z,14.05
2023-05-10T20:25:23.748Z,14.06
2023-05-10T20:27:53.270Z,14.04
2023-05-10T20:30:24.181Z,13.98
2023-05-10T20:32:52.453Z,13.91
2023-05-10T20:35:22.450Z,13.93
2023-05-10T20:37:50.434Z,13.94
2023-05-10T20:40:19.061Z,13.91
2023-05-10T20:42:47.923Z,13.83
2023-05-10T20:45:18.021Z,13.84
2023-05-10T20:47:45.930Z,13.83
2023-05-10T20:50:14.088Z,13.77
2023-05-10T20:52:42.088Z,13.77
2023-05-10T20:55:10.929Z,13.78
2023-05-10T20:57:39.263Z,13.77
2023-05-10T21:00:09.531Z,13.77
2023-05-10T21:02:39.423Z,13.78
2023-05-10T21:05:08.895Z,13.78
2023-05-10T21:07:36.899Z,13.80
2023-05-10T21:10:05.876Z,13.80
2023-05-10T21:12:33.994Z,13.80
2023-05-10T21:15:01.988Z,13.78
2023-05-10T21:17:30.359Z,13.73
2023-05-10T21:19:59.799Z,13.70
2023-05-10T21:22:28.400Z,13.69
2023-05-10T21:24:56.409Z,13.66
2023-05-10T21:27:24.618Z,13.64
2023-05-10T21:29:53.133Z,13.64
2023-05-10T21:32:21.862Z,13.64
2023-05-10T21:34:50.048Z,13.60
2023-05-10T21:37:19.611Z,13.56
2023-05-10T21:39:47.736Z,13.55
2023-05-10T21:42:16.986Z,13.50
2023-05-10T21:44:45.285Z,13.49
2023-05-10T21:47:13.347Z,13.44
2023-05-10T21:49:41.312Z,13.42
2023-05-10T21:52:09.305Z,13.39
2023-05-10T21:54:38.939Z,13.37
2023-05-10T21:57:06.941Z,13.36
2023-05-10T21:59:35.228Z,13.36
2023-05-10T22:02:03.586Z,13.32
2023-05-10T22:04:31.615Z,13.29
2023-05-10T22:07:00.472Z,13.23
2023-05-10T22:09:28.342Z,13.24
2023-05-10T22:11:57.857Z,13.22
2023-05-10T22:14:26.022Z,13.19
2023-05-10T22:16:54.020Z,13.18
2023-05-10T22:19:22.573Z,13.14
2023-05-10T22:21:51.039Z,13.12
2023-05-10T22:24:19.188Z,13.09
2023-05-10T22:26:47.398Z,13.05
2023-05-10T22:29:16.941Z,13.01
2023-05-10T22:31:45.096Z,12.99
2023-05-10T22:34:13.452Z,12.94
2023-05-10T22:36:41.780Z,12.95
2023-05-10T22:39:09.717Z,12.87
2023-05-10T22:41:38.094Z,12.83
2023-05-10T22:44:06.081Z,12.82
2023-05-10T22:46:37.094Z,12.82
2023-05-10T22:49:05.545Z,12.79
2023-05-10T22:51:33.790Z,12.80
2023-05-10T22:54:02.310Z,12.83
2023-05-10T22:56:30.863Z,12.83
2023-05-10T22:58:59.131Z,12.83
2023-05-10T23:01:27.676Z,12.83
2023-05-10T23:03:57.598Z,12.78
2023-05-10T23:06:27.336Z,12.76
2023-05-10T23:08:55.673Z,12.77
2023-05-10T23:11:24.077Z,12.77
2023-05-10T23:13:52.094Z,12.78
2023-05-10T23:16:20.038Z,12.77
2023-05-10T23:18:48.365Z,12.78
2023-05-10T23:21:17.953Z,12.82
2023-05-10T23:23:46.187Z,12.83
2023-05-10T23:26:14.420Z,12.85
2023-05-10T23:28:42.549Z,12.86
2023-05-10T23:31:10.967Z,12.87
2023-05-10T23:33:39.142Z,12.88
2023-05-10T23:36:07.656Z,12.89
2023-05-10T23:38:37.110Z,12.90
2023-05-10T23:41:06.487Z,12.93
2023-05-10T23:43:34.400Z,12.97
2023-05-10T23:46:02.502Z,12.95
2023-05-10T23:48:30.778Z,12.96
2023-05-10T23:50:58.757Z,12.96
2023-05-10T23:53:26.837Z,12.96
2023-05-10T23:55:56.556Z,12.95
2023-05-10T23:58:24.664Z,12.96
